Albion, Pennsylvania
Current Conditions -  °F | °C
As of 9:51 PM on Sunday 23 Nov 2014 (Local Time) from KERI Reporting Station
Light Rain Light Rain  
Wind Chill: 54°   Ceiling: 10000
Heat Index: 54°   Visibility: 10mi
Dew Point: 39°   Wind: 25mph
Humidity: 57%   Direction: 160°SSE
Pressure: 29.59"   Gusts: 33mph
Location:  41.89°N, 80.36°W
Report Text: KERI 240251Z 16022G29KT 10SM -RA FEW060 OVC100 12/04 A2959 RMK AO2 PK WND 14030/0205 RAB39 SLP021 P0000 60000 T01220039 56044
Loading
Personal Weather Stations






























Interactive Weather Map New forecast layout! Learn more

10-Day Weather Forecast

Advertisements
Track Severe Weather on mobile